Time;durP1;ratioP1;P1;durP2;ratioP2;P2;SDS_P1;SDS_P2;PMS_P1;PMS_P2;Temp;Humidity;BMP_temperature;BMP_pressure;BME280_temperature;BME280_humidity;BME280_pressure;Samples;Min_cycle;Max_cycle;Signal;HPM_P1;HPM_P2
2020/12/11 00:00:22;;;;;;;18.65;3.42;;;;;;;;;;5090482;28;20051;-56
2020/12/11 00:02:49;;;;;;;13.82;3.08;;;;;;;;;;5086857;28;20099;-52
2020/12/11 00:05:16;;;;;;;15.27;2.83;;;;;;;;;;5093439;28;20039;-55
2020/12/11 00:07:43;;;;;;;14.63;2.72;;;;;;;;;;5095831;28;20028;-49
2020/12/11 00:10:11;;;;;;;12.50;2.30;;;;;;;;;;5094898;28;20032;-53
2020/12/11 00:12:38;;;;;;;10.05;1.75;;;;;;;;;;5091526;28;20089;-54
2020/12/11 00:15:06;;;;;;;12.02;1.80;;;;;;;;;;5094995;28;20029;-51
2020/12/11 00:17:34;;;;;;;11.77;1.60;;;;;;;;;;5084368;28;20047;-54
2020/12/11 00:20:02;;;;;;;6.75;1.50;;;;;;;;;;5082892;28;20021;-54
2020/12/11 00:22:29;;;;;;;11.38;1.77;;;;;;;;;;5080582;28;20024;-49
2020/12/11 00:24:56;;;;;;;34.17;2.80;;;;;;;;;;5078659;28;20029;-51
2020/12/11 00:27:23;;;;;;;12.18;1.70;;;;;;;;;;5081813;28;20032;-51
2020/12/11 00:29:50;;;;;;;18.40;2.00;;;;;;;;;;5081280;28;20040;-49
2020/12/11 00:32:17;;;;;;;24.25;2.55;;;;;;;;;;5076338;28;20017;-53
2020/12/11 00:34:44;;;;;;;15.60;2.25;;;;;;;;;;5078703;28;21500;-49
2020/12/11 00:37:11;;;;;;;9.27;2.53;;;;;;;;;;5074804;28;20060;-51
2020/12/11 00:39:38;;;;;;;12.05;2.17;;;;;;;;;;5074206;28;20041;-50
2020/12/11 00:42:05;;;;;;;11.93;1.77;;;;;;;;;;5066679;28;20675;-50
2020/12/11 00:44:32;;;;;;;12.25;2.08;;;;;;;;;;5065691;28;20503;-53
2020/12/11 00:47:02;;;;;;;28.83;2.30;;;;;;;;;;5070258;28;20099;-52
2020/12/11 00:49:29;;;;;;;14.85;2.38;;;;;;;;;;5066267;28;20415;-51
2020/12/11 00:51:57;;;;;;;11.50;2.30;;;;;;;;;;5069694;28;20016;-53
2020/12/11 00:54:24;;;;;;;17.08;3.00;;;;;;;;;;5067169;28;20042;-50
2020/12/11 00:56:51;;;;;;;25.73;2.90;;;;;;;;;;5061894;28;20391;-50
2020/12/11 00:59:18;;;;;;;23.67;2.83;;;;;;;;;;5065848;28;20017;-53
2020/12/11 01:01:45;;;;;;;30.65;2.70;;;;;;;;;;5058296;28;20029;-53
2020/12/11 01:04:12;;;;;;;23.65;3.30;;;;;;;;;;5068664;28;20021;-52
2020/12/11 01:06:39;;;;;;;24.35;2.40;;;;;;;;;;5060023;28;20033;-57
2020/12/11 01:09:06;;;;;;;37.05;4.03;;;;;;;;;;5066265;28;20052;-52
2020/12/11 01:11:33;;;;;;;52.53;3.80;;;;;;;;;;5062680;28;20033;-55
2020/12/11 01:14:00;;;;;;;60.58;4.38;;;;;;;;;;5065853;28;20032;-54
2020/12/11 01:16:27;;;;;;;43.80;4.25;;;;;;;;;;5068744;28;20079;-56
2020/12/11 01:18:56;;;;;;;53.30;4.53;;;;;;;;;;5062037;28;20119;-53
2020/12/11 01:21:24;;;;;;;54.33;3.97;;;;;;;;;;5067543;28;20031;-56
2020/12/11 01:23:51;;;;;;;54.25;4.57;;;;;;;;;;5064156;28;20029;-53
2020/12/11 01:26:18;;;;;;;43.38;3.90;;;;;;;;;;5060120;28;20016;-53
2020/12/11 01:28:44;;;;;;;44.95;3.58;;;;;;;;;;5059766;28;20476;-56
2020/12/11 01:31:16;;;;;;;52.03;3.67;;;;;;;;;;5063209;28;20034;-56
2020/12/11 01:33:45;;;;;;;42.47;3.72;;;;;;;;;;5064017;28;20036;-53
2020/12/11 01:36:12;;;;;;;50.08;2.97;;;;;;;;;;5053498;28;20029;-54
2020/12/11 01:38:39;;;;;;;35.20;3.78;;;;;;;;;;5064176;28;20021;-56
2020/12/11 01:41:06;;;;;;;42.13;3.45;;;;;;;;;;5066664;28;20033;-54
2020/12/11 01:43:33;;;;;;;43.28;4.15;;;;;;;;;;5065448;28;20154;-58
2020/12/11 01:46:00;;;;;;;50.78;3.05;;;;;;;;;;5060382;28;20036;-53
2020/12/11 01:48:27;;;;;;;41.00;3.33;;;;;;;;;;5057598;28;20090;-55
2020/12/11 01:50:54;;;;;;;43.28;3.15;;;;;;;;;;5062521;28;20091;-57
2020/12/11 01:53:22;;;;;;;34.17;3.45;;;;;;;;;;5065524;28;20389;-56
2020/12/11 01:55:50;;;;;;;35.00;3.25;;;;;;;;;;5053415;28;20492;-53
2020/12/11 01:58:21;;;;;;;54.63;3.80;;;;;;;;;;5051041;28;20028;-52
2020/12/11 02:00:50;;;;;;;43.72;3.65;;;;;;;;;;5051825;28;20025;-51
2020/12/11 02:03:17;;;;;;;42.95;3.92;;;;;;;;;;5050836;28;20025;-54
2020/12/11 02:05:44;;;;;;;53.28;3.72;;;;;;;;;;5051589;28;20029;-47
2020/12/11 02:08:13;;;;;;;44.58;3.88;;;;;;;;;;5053877;28;20383;-46
2020/12/11 02:10:40;;;;;;;44.33;2.90;;;;;;;;;;5062132;28;20025;-53
2020/12/11 02:13:07;;;;;;;33.00;2.85;;;;;;;;;;5059677;28;20467;-47
2020/12/11 02:15:35;;;;;;;27.70;2.53;;;;;;;;;;5060429;28;20023;-48
2020/12/11 02:18:02;;;;;;;38.35;2.97;;;;;;;;;;5061631;28;20017;-51
2020/12/11 02:20:30;;;;;;;49.92;3.30;;;;;;;;;;5058389;28;20012;-46
2020/12/11 02:22:57;;;;;;;27.50;2.55;;;;;;;;;;5058540;28;20041;-46
2020/12/11 02:25:24;;;;;;;29.25;2.30;;;;;;;;;;5050988;28;20484;-50
2020/12/11 02:27:51;;;;;;;26.70;3.67;;;;;;;;;;5051455;28;20043;-50
2020/12/11 02:30:18;;;;;;;32.67;2.38;;;;;;;;;;5050466;28;20052;-47
2020/12/11 02:32:46;;;;;;;23.42;2.80;;;;;;;;;;5050183;28;20108;-49
2020/12/11 02:35:13;;;;;;;32.38;2.70;;;;;;;;;;5070986;28;20043;-48
2020/12/11 02:37:40;;;;;;;43.25;2.45;;;;;;;;;;5071300;28;20095;-50
2020/12/11 02:40:08;;;;;;;29.08;3.40;;;;;;;;;;5070759;28;20444;-48
2020/12/11 02:42:35;;;;;;;26.60;2.47;;;;;;;;;;5071505;28;20032;-47
2020/12/11 02:45:02;;;;;;;34.97;2.83;;;;;;;;;;5070576;28;20074;-49
2020/12/11 02:47:32;;;;;;;40.95;3.42;;;;;;;;;;5071190;28;20070;-48
2020/12/11 02:50:00;;;;;;;28.70;2.92;;;;;;;;;;5070911;28;20407;-49
2020/12/11 02:52:27;;;;;;;39.53;2.92;;;;;;;;;;5071250;28;20480;-47
2020/12/11 02:54:54;;;;;;;37.08;2.30;;;;;;;;;;5070575;28;20036;-48
2020/12/11 02:57:21;;;;;;;33.17;2.67;;;;;;;;;;5071383;28;20031;-50
2020/12/11 02:59:48;;;;;;;53.50;3.20;;;;;;;;;;5070803;28;20107;-46
2020/12/11 03:02:15;;;;;;;40.35;2.58;;;;;;;;;;5071152;28;20532;-47
2020/12/11 03:04:42;;;;;;;27.55;3.33;;;;;;;;;;5070506;28;20032;-48
2020/12/11 03:07:09;;;;;;;36.78;3.08;;;;;;;;;;5069924;28;20032;-52
2020/12/11 03:09:36;;;;;;;31.45;2.33;;;;;;;;;;5070792;28;20036;-54
2020/12/11 03:12:03;;;;;;;40.25;2.90;;;;;;;;;;5070578;28;20031;-53
2020/12/11 03:14:30;;;;;;;34.78;3.42;;;;;;;;;;5068608;28;20539;-53
2020/12/11 03:16:57;;;;;;;39.25;3.25;;;;;;;;;;5070293;28;20032;-47
2020/12/11 03:19:24;;;;;;;28.65;2.72;;;;;;;;;;5070962;28;20032;-52
2020/12/11 03:21:51;;;;;;;26.48;3.22;;;;;;;;;;5068993;28;20032;-53
2020/12/11 03:24:18;;;;;;;43.60;3.35;;;;;;;;;;5069648;28;20035;-55
2020/12/11 03:26:45;;;;;;;30.75;2.63;;;;;;;;;;5070269;28;20088;-54
2020/12/11 03:29:12;;;;;;;30.80;3.13;;;;;;;;;;5070706;28;20128;-47
2020/12/11 03:31:39;;;;;;;29.17;3.05;;;;;;;;;;5070433;28;20024;-47
2020/12/11 03:34:06;;;;;;;43.83;3.90;;;;;;;;;;5070608;28;20021;-49
2020/12/11 03:36:33;;;;;;;44.45;3.20;;;;;;;;;;5070332;28;20044;-50
2020/12/11 03:39:00;;;;;;;45.00;3.50;;;;;;;;;;5070363;28;20032;-49
2020/12/11 03:41:27;;;;;;;26.48;2.33;;;;;;;;;;5069116;28;20074;-51
2020/12/11 03:43:54;;;;;;;30.60;2.90;;;;;;;;;;5070526;28;20021;-53
2020/12/11 03:46:22;;;;;;;28.10;3.05;;;;;;;;;;5070696;28;20033;-54
2020/12/11 03:48:50;;;;;;;38.42;3.00;;;;;;;;;;5069968;28;20460;-52
2020/12/11 03:51:23;;;;;;;38.53;3.00;;;;;;;;;;5071065;28;20479;-51
2020/12/11 03:53:50;;;;;;;26.67;3.20;;;;;;;;;;5070235;28;20020;-53
2020/12/11 03:56:17;;;;;;;29.98;2.58;;;;;;;;;;5070718;28;20024;-52
2020/12/11 03:58:45;;;;;;;32.40;3.05;;;;;;;;;;5069992;28;20103;-53
2020/12/11 04:01:15;;;;;;;27.95;3.00;;;;;;;;;;5070776;28;20075;-52
2020/12/11 04:03:42;;;;;;;43.15;3.67;;;;;;;;;;5067987;28;20025;-51
2020/12/11 04:06:10;;;;;;;49.92;3.63;;;;;;;;;;5070281;28;20035;-51
2020/12/11 04:08:38;;;;;;;38.63;3.10;;;;;;;;;;5069785;28;20062;-49
2020/12/11 04:11:06;;;;;;;29.88;3.35;;;;;;;;;;5070657;28;20449;-53
2020/12/11 04:13:33;;;;;;;21.00;2.42;;;;;;;;;;5052333;28;20052;-51
2020/12/11 04:16:00;;;;;;;37.72;4.07;;;;;;;;;;5071250;28;20099;-51
2020/12/11 04:18:28;;;;;;;36.20;2.72;;;;;;;;;;5073472;28;20017;-52
2020/12/11 04:20:58;;;;;;;26.65;2.00;;;;;;;;;;5073981;28;20383;-52
2020/12/11 04:23:25;;;;;;;24.27;2.28;;;;;;;;;;5073497;28;20601;-53
2020/12/11 04:25:53;;;;;;;31.15;3.17;;;;;;;;;;5074005;28;20024;-50
2020/12/11 04:28:20;;;;;;;20.77;2.65;;;;;;;;;;5073767;28;20025;-51
2020/12/11 04:30:47;;;;;;;27.55;2.60;;;;;;;;;;5073515;28;20105;-46
2020/12/11 04:33:14;;;;;;;32.25;2.25;;;;;;;;;;5073753;28;20020;-51
2020/12/11 04:35:41;;;;;;;35.42;3.13;;;;;;;;;;5073232;28;20052;-50
2020/12/11 04:38:08;;;;;;;15.73;2.30;;;;;;;;;;5074035;28;20016;-50
2020/12/11 04:40:35;;;;;;;20.02;1.80;;;;;;;;;;5073378;28;20103;-50
2020/12/11 04:43:04;;;;;;;21.40;2.33;;;;;;;;;;5073883;28;20028;-53
2020/12/11 04:45:31;;;;;;;18.88;1.33;;;;;;;;;;5073357;28;20063;-49
2020/12/11 04:47:58;;;;;;;15.07;1.52;;;;;;;;;;5073711;28;20483;-50
2020/12/11 04:50:25;;;;;;;26.15;2.75;;;;;;;;;;5072786;28;20033;-50
2020/12/11 04:52:53;;;;;;;23.40;2.53;;;;;;;;;;5073368;28;20029;-51
2020/12/11 04:55:21;;;;;;;17.88;1.85;;;;;;;;;;5073228;28;20017;-51
2020/12/11 04:57:49;;;;;;;19.92;1.98;;;;;;;;;;5073477;28;20082;-50
2020/12/11 05:00:17;;;;;;;19.15;1.60;;;;;;;;;;5072756;28;20039;-53
2020/12/11 05:02:44;;;;;;;24.08;2.30;;;;;;;;;;5073566;28;20031;-52
2020/12/11 05:05:12;;;;;;;16.55;1.92;;;;;;;;;;5073033;28;20537;-48
2020/12/11 05:07:39;;;;;;;18.33;1.92;;;;;;;;;;5073138;28;20021;-50
2020/12/11 05:10:07;;;;;;;15.07;1.45;;;;;;;;;;5073066;28;20036;-48
2020/12/11 05:12:34;;;;;;;10.82;1.73;;;;;;;;;;5072625;28;20021;-51
2020/12/11 05:15:09;;;;;;;18.50;1.48;;;;;;;;;;5073198;28;20029;-50
2020/12/11 05:17:36;;;;;;;16.80;1.35;;;;;;;;;;5072702;28;20063;-53
2020/12/11 05:20:04;;;;;;;18.77;1.77;;;;;;;;;;5088459;28;20476;-50
2020/12/11 05:22:32;;;;;;;16.15;1.85;;;;;;;;;;5072493;28;20028;-48
2020/12/11 05:25:00;;;;;;;17.00;1.70;;;;;;;;;;5073037;28;20150;-53
2020/12/11 05:27:28;;;;;;;15.25;1.27;;;;;;;;;;5072444;28;20521;-50
2020/12/11 05:29:55;;;;;;;16.52;1.30;;;;;;;;;;5072437;28;20079;-48
2020/12/11 05:32:39;;;;;;;10.70;1.48;;;;;;;;;;5072208;28;20092;-53
2020/12/11 05:35:08;;;;;;;16.02;1.08;;;;;;;;;;5072901;28;20024;-49
2020/12/11 05:38:07;;;;;;;22.60;1.63;;;;;;;;;;5072574;28;20361;-51
2020/12/11 05:40:35;;;;;;;13.43;1.17;;;;;;;;;;5038799;28;20503;-49
2020/12/11 05:43:22;;;;;;;13.23;1.13;;;;;;;;;;5087910;28;20029;-50
2020/12/11 05:45:56;;;;;;;9.38;0.90;;;;;;;;;;5072746;28;20027;-51
2020/12/11 05:48:24;;;;;;;6.93;1.10;;;;;;;;;;5071970;28;20379;-52
2020/12/11 05:50:52;;;;;;;13.43;1.10;;;;;;;;;;5072331;28;20033;-49
2020/12/11 05:53:19;;;;;;;6.00;0.98;;;;;;;;;;5071984;28;20063;-51
2020/12/11 05:55:48;;;;;;;8.07;0.93;;;;;;;;;;5072457;28;20541;-49
2020/12/11 05:58:16;;;;;;;13.27;0.90;;;;;;;;;;5071915;28;20029;-49
2020/12/11 06:00:44;;;;;;;11.57;0.60;;;;;;;;;;5072124;28;20016;-49
2020/12/11 06:03:11;;;;;;;6.82;0.95;;;;;;;;;;5071922;28;20059;-47
2020/12/11 06:05:39;;;;;;;5.63;0.70;;;;;;;;;;5072190;28;20017;-50
2020/12/11 06:08:10;;;;;;;3.45;0.45;;;;;;;;;;5071511;28;20051;-49
2020/12/11 06:10:39;;;;;;;3.83;0.65;;;;;;;;;;5071680;28;20059;-48
2020/12/11 06:13:06;;;;;;;7.95;0.88;;;;;;;;;;5071695;28;20100;-48
2020/12/11 06:15:38;;;;;;;13.18;0.75;;;;;;;;;;5072000;28;20070;-48
2020/12/11 06:18:08;;;;;;;6.95;1.23;;;;;;;;;;5072060;28;20027;-47
2020/12/11 06:20:35;;;;;;;5.45;0.73;;;;;;;;;;5071504;28;20116;-48
2020/12/11 06:23:20;;;;;;;13.60;0.93;;;;;;;;;;5071802;28;20419;-47
2020/12/11 06:25:49;;;;;;;5.38;0.60;;;;;;;;;;5071654;28;20017;-47
2020/12/11 06:28:39;;;;;;;9.45;0.80;;;;;;;;;;5071756;28;20020;-51
2020/12/11 06:31:07;;;;;;;8.48;0.70;;;;;;;;;;5071415;28;20553;-48
2020/12/11 06:33:35;;;;;;;8.38;0.50;;;;;;;;;;5071889;28;20021;-49
2020/12/11 06:36:03;;;;;;;2.55;0.50;;;;;;;;;;5071209;28;20028;-47
2020/12/11 06:38:48;;;;;;;15.05;1.15;;;;;;;;;;5070925;28;20533;-49
2020/12/11 06:41:35;;;;;;;8.75;0.50;;;;;;;;;;5070759;28;20025;-51
2020/12/11 06:44:10;;;;;;;7.90;0.90;;;;;;;;;;5071430;28;20100;-48
2020/12/11 06:46:37;;;;;;;3.85;0.70;;;;;;;;;;5071322;28;20032;-47
2020/12/11 06:49:13;;;;;;;8.15;1.00;;;;;;;;;;5071460;28;20024;-47
2020/12/11 06:51:43;;;;;;;7.38;0.90;;;;;;;;;;5070727;28;20017;-47
2020/12/11 06:54:10;;;;;;;6.82;0.55;;;;;;;;;;5071317;28;20103;-46
2020/12/11 06:56:41;;;;;;;7.85;0.60;;;;;;;;;;5070888;28;20491;-47
2020/12/11 06:59:24;;;;;;;2.83;0.57;;;;;;;;;;5071461;28;20082;-48
2020/12/11 07:01:57;;;;;;;7.57;0.77;;;;;;;;;;5228488;22;20102;-47
2020/12/11 07:04:24;;;;;;;8.18;0.80;;;;;;;;;;5026374;28;20500;-49
2020/12/11 07:06:52;;;;;;;4.57;0.63;;;;;;;;;;5021160;28;20029;-45
2020/12/11 07:09:20;;;;;;;6.22;0.90;;;;;;;;;;5012116;28;20053;-52
2020/12/11 07:11:47;;;;;;;4.20;0.63;;;;;;;;;;5013162;28;20543;-47
2020/12/11 07:14:15;;;;;;;6.20;0.60;;;;;;;;;;5013934;28;20029;-47
2020/12/11 07:16:43;;;;;;;4.07;0.38;;;;;;;;;;5031295;28;20025;-51
2020/12/11 07:19:10;;;;;;;3.03;0.57;;;;;;;;;;5031715;28;20022;-49
2020/12/11 07:21:39;;;;;;;9.00;1.10;;;;;;;;;;5030096;28;20022;-47
2020/12/11 07:24:07;;;;;;;5.70;0.80;;;;;;;;;;5031736;28;20069;-47
2020/12/11 07:26:34;;;;;;;5.60;0.45;;;;;;;;;;5031132;28;20028;-53
2020/12/11 07:29:05;;;;;;;5.60;0.85;;;;;;;;;;5030169;28;20049;-48
2020/12/11 07:31:42;;;;;;;7.15;0.80;;;;;;;;;;5031139;28;20025;-47
2020/12/11 07:34:23;;;;;;;4.88;0.80;;;;;;;;;;5031489;28;20418;-49
2020/12/11 07:36:54;;;;;;;5.95;0.73;;;;;;;;;;5031403;28;20108;-45
2020/12/11 07:39:22;;;;;;;3.40;0.60;;;;;;;;;;5031578;28;20063;-49
2020/12/11 07:41:50;;;;;;;5.40;0.70;;;;;;;;;;5030762;28;20021;-49
2020/12/11 07:44:30;;;;;;;5.80;0.68;;;;;;;;;;5030725;28;20025;-47
2020/12/11 07:47:01;;;;;;;6.03;1.55;;;;;;;;;;5031548;28;20056;-45
2020/12/11 07:49:41;;;;;;;9.02;0.80;;;;;;;;;;5030671;28;20017;-47
2020/12/11 07:52:09;;;;;;;6.80;1.02;;;;;;;;;;5026907;28;20108;-46
2020/12/11 07:54:36;;;;;;;7.32;0.85;;;;;;;;;;5015104;28;20026;-46
2020/12/11 07:57:17;;;;;;;9.48;1.15;;;;;;;;;;5014249;28;20026;-46
2020/12/11 08:00:04;;;;;;;4.10;0.65;;;;;;;;;;5015011;28;20029;-48
2020/12/11 08:02:33;;;;;;;2.38;0.55;;;;;;;;;;5014634;28;20042;-47
2020/12/11 08:05:00;;;;;;;2.92;0.40;;;;;;;;;;5014686;28;20081;-48
2020/12/11 08:07:31;;;;;;;2.63;0.45;;;;;;;;;;5015303;28;20064;-49
2020/12/11 08:10:08;;;;;;;1.00;0.30;;;;;;;;;;5014871;28;20041;-46
2020/12/11 08:12:35;;;;;;;4.57;0.52;;;;;;;;;;5014680;28;20493;-47
2020/12/11 08:15:02;;;;;;;6.75;0.55;;;;;;;;;;5014530;28;20026;-47
2020/12/11 08:17:31;;;;;;;4.15;0.40;;;;;;;;;;5015061;28;20049;-45
2020/12/11 08:19:59;;;;;;;2.85;0.50;;;;;;;;;;5014349;28;20026;-47
2020/12/11 08:22:33;;;;;;;4.85;0.40;;;;;;;;;;5014329;28;20124;-47
2020/12/11 08:25:01;;;;;;;6.82;0.60;;;;;;;;;;5014322;28;20033;-46
2020/12/11 08:27:29;;;;;;;5.60;0.60;;;;;;;;;;5014894;28;20428;-47
2020/12/11 08:30:10;;;;;;;2.88;0.50;;;;;;;;;;5014265;28;20030;-46
2020/12/11 08:32:37;;;;;;;5.35;0.50;;;;;;;;;;5014614;28;20028;-46
2020/12/11 08:35:17;;;;;;;1.67;0.30;;;;;;;;;;5014510;28;20033;-48
2020/12/11 08:37:53;;;;;;;3.35;0.70;;;;;;;;;;5014483;28;20068;-46
2020/12/11 08:40:20;;;;;;;6.65;0.63;;;;;;;;;;5013990;28;20144;-47
2020/12/11 08:45:41;;;;;;;3.97;0.30;;;;;;;;;;5014142;28;20084;-45
2020/12/11 08:51:07;;;;;;;4.05;0.40;;;;;;;;;;5013738;28;20049;-46
2020/12/11 08:53:40;;;;;;;4.47;0.40;;;;;;;;;;5013974;28;20033;-48
2020/12/11 08:56:07;;;;;;;8.95;0.60;;;;;;;;;;5013672;28;20064;-46
2020/12/11 08:58:35;;;;;;;4.63;0.50;;;;;;;;;;5013005;28;20080;-47
2020/12/11 09:01:03;;;;;;;1.42;0.28;;;;;;;;;;5013530;28;20018;-46
2020/12/11 09:03:30;;;;;;;3.13;0.40;;;;;;;;;;5013397;28;20507;-46
2020/12/11 09:05:57;;;;;;;4.10;0.50;;;;;;;;;;5013384;28;20026;-45
2020/12/11 09:08:24;;;;;;;2.10;0.38;;;;;;;;;;5012740;28;20022;-46
2020/12/11 09:10:51;;;;;;;1.73;0.45;;;;;;;;;;5013807;28;20037;-46
2020/12/11 09:13:18;;;;;;;9.05;0.52;;;;;;;;;;5013278;28;20022;-46
2020/12/11 09:15:45;;;;;;;7.65;0.43;;;;;;;;;;5013981;28;20420;-48
2020/12/11 09:18:12;;;;;;;1.95;0.43;;;;;;;;;;5011897;28;20421;-46
2020/12/11 09:20:39;;;;;;;4.32;0.47;;;;;;;;;;5013735;28;20069;-47
2020/12/11 09:23:06;;;;;;;7.05;0.40;;;;;;;;;;5013174;28;20018;-47
2020/12/11 09:25:33;;;;;;;5.05;0.40;;;;;;;;;;5013647;28;20018;-47
2020/12/11 09:28:01;;;;;;;2.45;0.40;;;;;;;;;;5013033;28;20026;-45
2020/12/11 09:30:35;;;;;;;5.50;0.35;;;;;;;;;;5013559;28;20026;-46
2020/12/11 09:33:21;;;;;;;11.38;0.75;;;;;;;;;;5013257;28;20528;-46
2020/12/11 09:35:48;;;;;;;4.15;0.40;;;;;;;;;;5013247;28;20021;-46
2020/12/11 09:38:15;;;;;;;2.97;0.55;;;;;;;;;;5013036;28;20014;-47
2020/12/11 09:40:59;;;;;;;6.05;0.45;;;;;;;;;;5013774;28;20022;-46
2020/12/11 09:48:48;;;;;;;5.25;0.50;;;;;;;;;;5013272;28;20018;-46
2020/12/11 09:56:38;;;;;;;8.52;0.70;;;;;;;;;;5013126;28;20032;-48
2020/12/11 09:59:09;;;;;;;5.72;0.50;;;;;;;;;;5012933;28;20077;-46
2020/12/11 10:04:12;;;;;;;2.08;0.45;;;;;;;;;;5012712;28;20030;-46
2020/12/11 10:06:39;;;;;;;2.80;0.32;;;;;;;;;;5012500;28;20052;-46
2020/12/11 10:09:12;;;;;;;4.80;0.45;;;;;;;;;;5013125;28;20029;-47
2020/12/11 10:11:40;;;;;;;5.60;0.50;;;;;;;;;;5012549;28;20044;-47
2020/12/11 10:14:32;;;;;;;6.35;0.68;;;;;;;;;;5011753;28;20477;-46
2020/12/11 10:16:55;;;;;;;3.00;0.50;;;;;;;;;;5011661;28;20034;-46
2020/12/11 10:19:22;;;;;;;4.25;0.70;;;;;;;;;;5012424;28;20030;-49
2020/12/11 10:21:50;;;;;;;9.70;0.60;;;;;;;;;;5011904;28;20036;-46
2020/12/11 10:24:17;;;;;;;2.97;0.30;;;;;;;;;;5012497;28;20468;-47
2020/12/11 10:26:45;;;;;;;5.72;0.40;;;;;;;;;;5012386;28;20034;-46
2020/12/11 10:29:12;;;;;;;5.25;0.40;;;;;;;;;;5012663;28;20025;-46
2020/12/11 10:31:42;;;;;;;5.78;0.45;;;;;;;;;;5011883;28;20034;-46
2020/12/11 10:34:13;;;;;;;5.35;0.55;;;;;;;;;;5012331;28;20025;-46
2020/12/11 10:36:40;;;;;;;9.10;0.50;;;;;;;;;;5012250;28;20033;-47
2020/12/11 10:39:08;;;;;;;6.88;0.47;;;;;;;;;;5012467;28;20026;-45
2020/12/11 10:41:35;;;;;;;6.60;0.60;;;;;;;;;;5010626;28;20026;-48
2020/12/11 10:44:02;;;;;;;2.50;0.30;;;;;;;;;;5011930;28;20175;-46
2020/12/11 10:46:29;;;;;;;10.90;0.65;;;;;;;;;;5012511;28;20034;-51
2020/12/11 10:48:57;;;;;;;2.88;0.45;;;;;;;;;;5011319;28;20503;-46
2020/12/11 10:51:24;;;;;;;4.32;0.40;;;;;;;;;;5011577;28;20022;-48
2020/12/11 10:53:51;;;;;;;12.45;0.88;;;;;;;;;;5010707;28;20025;-46
2020/12/11 10:56:19;;;;;;;13.25;0.80;;;;;;;;;;5011002;28;20087;-46
2020/12/11 10:58:47;;;;;;;12.90;0.70;;;;;;;;;;5011217;28;20030;-49
2020/12/11 11:01:14;;;;;;;7.20;0.57;;;;;;;;;;5011765;28;20046;-47
2020/12/11 11:03:41;;;;;;;6.82;0.75;;;;;;;;;;5011396;28;20038;-49
2020/12/11 11:06:22;;;;;;;4.63;0.75;;;;;;;;;;5011695;28;20477;-50
2020/12/11 11:11:29;;;;;;;13.55;1.33;;;;;;;;;;5011286;28;20065;-48
2020/12/11 11:22:14;;;;;;;82.07;5.38;;;;;;;;;;5022206;28;20034;-42
2020/12/11 11:29:56;;;;;;;62.63;4.75;;;;;;;;;;5021766;28;20488;-42
2020/12/11 11:32:23;;;;;;;49.78;4.85;;;;;;;;;;5024375;28;20022;-42
2020/12/11 11:34:50;;;;;;;44.90;3.42;;;;;;;;;;5020488;28;20034;-42
2020/12/11 11:37:17;;;;;;;33.22;2.28;;;;;;;;;;5024295;28;20100;-43
2020/12/11 11:39:44;;;;;;;16.83;1.98;;;;;;;;;;5028389;28;20160;-42
2020/12/11 11:42:11;;;;;;;20.88;2.08;;;;;;;;;;5011786;28;20034;-43
2020/12/11 11:45:01;;;;;;;20.75;1.48;;;;;;;;;;5015143;28;20322;-42
2020/12/11 11:47:25;;;;;;;46.92;3.78;;;;;;;;;;5010450;28;20113;-42
2020/12/11 11:55:13;;;;;;;23.85;2.80;;;;;;;;;;4995392;28;20049;-51
2020/12/11 11:57:41;;;;;;;21.02;2.30;;;;;;;;;;5025640;28;20540;-54
2020/12/11 12:00:09;;;;;;;24.45;1.98;;;;;;;;;;5029813;28;20033;-53
2020/12/11 12:02:37;;;;;;;27.50;2.20;;;;;;;;;;5027173;28;20042;-54
2020/12/11 12:05:06;;;;;;;34.75;1.95;;;;;;;;;;5016720;28;20543;-54
2020/12/11 12:07:34;;;;;;;13.75;1.30;;;;;;;;;;5018422;28;20026;-50
2020/12/11 12:10:02;;;;;;;22.60;1.85;;;;;;;;;;5019487;28;20033;-54
2020/12/11 12:12:29;;;;;;;18.17;1.60;;;;;;;;;;5029206;28;20083;-54
2020/12/11 12:14:56;;;;;;;10.82;1.23;;;;;;;;;;5027002;28;20021;-50
2020/12/11 12:17:32;;;;;;;17.35;1.20;;;;;;;;;;5015466;28;20382;-57
2020/12/11 12:20:04;;;;;;;17.00;1.58;;;;;;;;;;5010192;28;20038;-54
2020/12/11 12:30:51;;;;;;;29.70;2.80;;;;;;;;;;5023395;28;20099;-48
2020/12/11 12:36:22;;;;;;;17.55;1.40;;;;;;;;;;5019497;28;20107;-52
2020/12/11 12:39:07;;;;;;;15.77;1.70;;;;;;;;;;5032977;28;20123;-49
2020/12/11 12:44:19;;;;;;;8.00;1.08;;;;;;;;;;5033080;28;20029;-54
2020/12/11 12:46:46;;;;;;;11.32;1.30;;;;;;;;;;5032495;28;20374;-55
2020/12/11 12:49:13;;;;;;;7.53;1.05;;;;;;;;;;5033560;28;20500;-57
2020/12/11 12:51:40;;;;;;;12.98;1.38;;;;;;;;;;5027336;28;20108;-48
2020/12/11 12:54:07;;;;;;;13.50;1.35;;;;;;;;;;5037456;28;20017;-54
2020/12/11 12:56:44;;;;;;;23.00;1.85;;;;;;;;;;5033674;28;20502;-56
2020/12/11 13:04:44;;;;;;;6.78;1.33;;;;;;;;;;5024391;28;20599;-49
2020/12/11 13:07:11;;;;;;;16.25;1.98;;;;;;;;;;5020990;28;20041;-55
2020/12/11 13:09:38;;;;;;;7.60;1.15;;;;;;;;;;5026938;28;20112;-51
2020/12/11 13:12:05;;;;;;;11.75;1.90;;;;;;;;;;5032716;28;20362;-57
2020/12/11 13:14:32;;;;;;;19.13;2.28;;;;;;;;;;5032335;28;20053;-70
2020/12/11 13:16:59;;;;;;;12.27;1.98;;;;;;;;;;5032488;28;20030;-56
2020/12/11 13:19:27;;;;;;;14.38;1.77;;;;;;;;;;5032718;28;20051;-56
2020/12/11 13:22:12;;;;;;;9.73;1.40;;;;;;;;;;5031930;28;20041;-54
2020/12/11 13:27:30;;;;;;;12.27;1.75;;;;;;;;;;5025188;28;20040;-47
2020/12/11 13:30:00;;;;;;;17.67;1.90;;;;;;;;;;5021191;28;20477;-57
2020/12/11 13:32:30;;;;;;;8.63;1.58;;;;;;;;;;5028042;28;20113;-51
2020/12/11 13:34:57;;;;;;;8.95;1.30;;;;;;;;;;5032661;28;20029;-57
2020/12/11 13:37:28;;;;;;;9.38;0.93;;;;;;;;;;5033128;28;20401;-46
2020/12/11 13:39:56;;;;;;;14.25;1.10;;;;;;;;;;5032607;28;20052;-57
2020/12/11 13:42:23;;;;;;;10.63;1.80;;;;;;;;;;5033187;28;20030;-60
2020/12/11 13:44:51;;;;;;;6.10;0.90;;;;;;;;;;5031710;28;20045;-56
2020/12/11 13:47:19;;;;;;;13.38;0.90;;;;;;;;;;5032613;28;20083;-50
2020/12/11 13:49:46;;;;;;;4.85;0.80;;;;;;;;;;5021574;28;20029;-57
2020/12/11 13:52:13;;;;;;;14.80;1.08;;;;;;;;;;5031794;28;20025;-55
2020/12/11 13:54:40;;;;;;;7.93;1.13;;;;;;;;;;5031955;28;20362;-40
2020/12/11 13:57:10;;;;;;;9.13;1.13;;;;;;;;;;5017827;28;20044;-54
2020/12/11 13:59:38;;;;;;;6.78;0.85;;;;;;;;;;5010749;28;20060;-56
2020/12/11 14:02:05;;;;;;;7.10;1.35;;;;;;;;;;5024822;28;20034;-42
2020/12/11 14:04:32;;;;;;;7.45;1.13;;;;;;;;;;5018915;28;20029;-54
2020/12/11 14:07:01;;;;;;;5.07;1.17;;;;;;;;;;5013495;28;20080;-44
2020/12/11 14:09:28;;;;;;;10.02;0.85;;;;;;;;;;5026436;28;20029;-52
2020/12/11 14:11:57;;;;;;;15.20;1.33;;;;;;;;;;5020078;28;20037;-44
2020/12/11 14:14:25;;;;;;;16.35;1.20;;;;;;;;;;5021007;28;20022;-55
2020/12/11 14:16:54;;;;;;;13.38;1.35;;;;;;;;;;5011705;28;20022;-49
2020/12/11 14:24:28;;;;;;;17.65;1.20;;;;;;;;;;5012366;28;20462;-58
2020/12/11 14:26:56;;;;;;;15.32;1.30;;;;;;;;;;5021292;28;20028;-54
2020/12/11 14:29:23;;;;;;;19.08;1.35;;;;;;;;;;5024879;28;20046;-61
2020/12/11 14:31:52;;;;;;;15.50;1.27;;;;;;;;;;5018653;28;20034;-64
2020/12/11 14:34:19;;;;;;;8.25;0.80;;;;;;;;;;5027394;28;20490;-60
2020/12/11 14:36:46;;;;;;;14.55;1.23;;;;;;;;;;5026361;28;20065;-59
2020/12/11 14:39:13;;;;;;;10.20;1.50;;;;;;;;;;5025521;28;20587;-55
2020/12/11 14:41:41;;;;;;;6.80;0.80;;;;;;;;;;5029213;28;20013;-51
2020/12/11 14:44:09;;;;;;;5.28;1.02;;;;;;;;;;5021769;28;20050;-41
2020/12/11 14:46:36;;;;;;;12.90;1.38;;;;;;;;;;5015832;28;20036;-51
2020/12/11 14:49:05;;;;;;;8.32;0.70;;;;;;;;;;5022461;28;20052;-51
2020/12/11 14:51:42;;;;;;;12.32;1.10;;;;;;;;;;5028516;28;20595;-53
2020/12/11 14:54:10;;;;;;;9.57;0.90;;;;;;;;;;5016144;28;20389;-47
2020/12/11 14:56:45;;;;;;;8.25;0.70;;;;;;;;;;5013957;28;20515;-57
2020/12/11 14:59:13;;;;;;;6.35;0.85;;;;;;;;;;5028866;28;20021;-50
2020/12/11 15:01:40;;;;;;;4.50;0.80;;;;;;;;;;5024745;28;20143;-48
2020/12/11 15:04:07;;;;;;;10.55;0.80;;;;;;;;;;5018055;28;20025;-55
2020/12/11 15:06:34;;;;;;;5.95;1.02;;;;;;;;;;5016147;28;20902;-46
2020/12/11 15:09:02;;;;;;;7.35;1.25;;;;;;;;;;5015175;28;20060;-56
2020/12/11 15:11:30;;;;;;;10.73;1.08;;;;;;;;;;5016218;28;20044;-54
2020/12/11 15:13:57;;;;;;;10.18;1.10;;;;;;;;;;5016248;28;20025;-49
2020/12/11 15:16:24;;;;;;;6.22;0.70;;;;;;;;;;5013813;28;20029;-58
2020/12/11 15:18:51;;;;;;;16.05;0.95;;;;;;;;;;5025347;28;20021;-48
2020/12/11 15:21:19;;;;;;;16.85;0.90;;;;;;;;;;5029101;28;20108;-59
2020/12/11 15:23:46;;;;;;;8.52;0.93;;;;;;;;;;5014851;28;20062;-43
2020/12/11 15:26:14;;;;;;;11.32;0.80;;;;;;;;;;5018328;28;20030;-41
2020/12/11 15:28:41;;;;;;;18.52;1.15;;;;;;;;;;5014540;28;20033;-43
2020/12/11 15:31:08;;;;;;;11.23;0.77;;;;;;;;;;5011912;28;20105;-43
2020/12/11 15:33:38;;;;;;;11.48;0.90;;;;;;;;;;5029049;28;20052;-44
2020/12/11 15:36:05;;;;;;;7.57;0.80;;;;;;;;;;5023784;28;20044;-46
2020/12/11 15:38:32;;;;;;;5.28;0.63;;;;;;;;;;5029504;28;20493;-44
2020/12/11 15:40:59;;;;;;;10.77;0.63;;;;;;;;;;5019629;28;20504;-44
2020/12/11 15:43:26;;;;;;;3.70;0.70;;;;;;;;;;5028947;28;20022;-44
2020/12/11 15:45:53;;;;;;;6.85;0.80;;;;;;;;;;5015453;28;20076;-43
2020/12/11 15:48:20;;;;;;;8.90;0.77;;;;;;;;;;5015507;28;20057;-44
2020/12/11 15:50:47;;;;;;;10.20;0.90;;;;;;;;;;5018980;28;20534;-44
2020/12/11 15:53:15;;;;;;;7.65;0.45;;;;;;;;;;5022131;28;20080;-43